Wetterdaten: Woche 16.01.17 - 22.01.17 (KW3)
Datum Zeit Temp. A. Feuchte A. Luftdruck Regen Wind Richtung Taupunkt Windchill Windben
16.01.2017 00:00 -5,8 C 95 % 1022,6 hPa 0,0 l/m 0,4 km/h (0 Bft) S -6,5 C -5,8 C 1,2 km/h (1 Bft)
16.01.2017 01:00 -5,6 C 95 % 1022,4 hPa 0,0 l/m 0,1 km/h (0 Bft) S -6,2 C -5,6 C 0,8 km/h (0 Bft)
16.01.2017 02:00 -5,8 C 95 % 1022,3 hPa 0,0 l/m 0,0 km/h (0 Bft) S -6,5 C -5,8 C 0,0 km/h (0 Bft)
16.01.2017 03:00 -5,9 C 95 % 1022,5 hPa 0,0 l/m 0,4 km/h (0 Bft) SO -6,5 C -5,9 C 2,0 km/h (1 Bft)
16.01.2017 04:00 -5,5 C 95 % 1022,3 hPa 0,0 l/m 0,0 km/h (0 Bft) SO -6,1 C -5,5 C 0,0 km/h (0 Bft)
16.01.2017 05:00 -7,1 C 94 % 1022,7 hPa 0,0 l/m 0,1 km/h (0 Bft) SO -7,9 C -7,1 C 0,4 km/h (0 Bft)
16.01.2017 06:00 -7,3 C 94 % 1022,8 hPa 0,0 l/m 0,1 km/h (0 Bft) SO -8,1 C -7,3 C 0,6 km/h (0 Bft)
16.01.2017 07:00 -7,2 C 94 % 1023,2 hPa 0,0 l/m 0,0 km/h (0 Bft) SO -7,9 C -7,2 C 0,3 km/h (0 Bft)
16.01.2017 08:00 -8,0 C 94 % 1023,8 hPa 0,0 l/m 0,0 km/h (0 Bft) SO -8,8 C -8,0 C 0,3 km/h (0 Bft)
16.01.2017 09:00 -7,1 C 95 % 1024,3 hPa 0,0 l/m 0,1 km/h (0 Bft) S-SO -7,8 C -7,1 C 0,8 km/h (0 Bft)
16.01.2017 10:00 -5,2 C 94 % 1024,5 hPa 0,0 l/m 0,7 km/h (0 Bft) S-SO -6,0 C -5,2 C 2,8 km/h (1 Bft)
16.01.2017 11:00 -3,1 C 87 % 1024,7 hPa 0,0 l/m 1,4 km/h (1 Bft) SW -4,9 C -3,1 C 4,4 km/h (1 Bft)
16.01.2017 12:00 -3,3 C 87 % 1024,7 hPa 0,0 l/m 1,7 km/h (1 Bft) O-NO -5,1 C -3,3 C 4,0 km/h (1 Bft)
16.01.2017 13:00 -3,0 C 86 % 1024,6 hPa 0,3 l/m 1,9 km/h (1 Bft) W-NW -5,1 C -3,0 C 5,7 km/h (2 Bft)
16.01.2017 14:00 -2,6 C 82 % 1024,5 hPa 0,3 l/m 2,8 km/h (1 Bft) SW -5,2 C -2,6 C 7,8 km/h (2 Bft)
16.01.2017 15:00 -3,5 C 86 % 1025,0 hPa 0,0 l/m 1,8 km/h (1 Bft) NW -5,5 C -3,5 C 5,1 km/h (1 Bft)
16.01.2017 16:00 -4,3 C 87 % 1025,4 hPa 0,0 l/m 1,5 km/h (1 Bft) W -6,1 C -4,3 C 5,0 km/h (1 Bft)
16.01.2017 17:00 -5,3 C 90 % 1025,9 hPa 0,0 l/m 2,2 km/h (1 Bft) NW -6,7 C -5,3 C 5,2 km/h (1 Bft)
16.01.2017 18:00 -5,3 C 88 % 1026,3 hPa 0,0 l/m 3,4 km/h (1 Bft) NW -7,0 C -5,3 C 7,8 km/h (2 Bft)
16.01.2017 19:00 -5,6 C 87 % 1026,9 hPa 0,0 l/m 3,5 km/h (1 Bft) NW -7,4 C -5,6 C 9,4 km/h (2 Bft)
16.01.2017 20:00 -5,9 C 88 % 1027,3 hPa 0,0 l/m 3,1 km/h (1 Bft) NW -7,6 C -5,9 C 8,0 km/h (2 Bft)
16.01.2017 21:00 -6,5 C 90 % 1027,8 hPa 0,0 l/m 1,8 km/h (1 Bft) NW -7,8 C -6,5 C 4,5 km/h (1 Bft)
16.01.2017 22:00 -7,0 C 92 % 1028,2 hPa 0,0 l/m 1,3 km/h (1 Bft) W-NW -8,0 C -7,0 C 4,1 km/h (1 Bft)
16.01.2017 23:00 -6,2 C 92 % 1028,4 hPa 0,0 l/m 1,9 km/h (1 Bft) NW -7,3 C -6,2 C 5,2 km/h (1 Bft)
17.01.2017 00:00 -6,0 C 91 % 1028,8 hPa 0,0 l/m 2,6 km/h (1 Bft) NW -7,1 C -6,0 C 6,0 km/h (2 Bft)
17.01.2017 01:00 -5,9 C 92 % 1029,1 hPa 0,0 l/m 2,9 km/h (1 Bft) NW -7,0 C -5,9 C 8,6 km/h (2 Bft)
17.01.2017 02:00 -5,9 C 91 % 1029,3 hPa 0,0 l/m 2,6 km/h (1 Bft) W -7,1 C -5,9 C 7,4 km/h (2 Bft)
17.01.2017 03:00 -6,1 C 91 % 1029,6 hPa 0,0 l/m 2,5 km/h (1 Bft) W-NW -7,3 C -6,1 C 6,4 km/h (2 Bft)
17.01.2017 04:00 -6,2 C 92 % 1029,8 hPa 0,0 l/m 3,4 km/h (1 Bft) NW -7,3 C -6,2 C 9,1 km/h (2 Bft)
17.01.2017 05:00 -6,6 C 92 % 1030,4 hPa 0,0 l/m 4,4 km/h (1 Bft) NW -7,7 C -6,7 C 11,2 km/h (2 Bft)
17.01.2017 06:00 -7,1 C 92 % 1030,9 hPa 0,0 l/m 4,4 km/h (1 Bft) W-NW -8,2 C -7,1 C 10,7 km/h (2 Bft)
17.01.2017 07:00 -7,6 C 90 % 1031,5 hPa 0,0 l/m 4,3 km/h (1 Bft) W -8,9 C -7,6 C 14,0 km/h (3 Bft)
17.01.2017 08:00 -7,4 C 90 % 1032,0 hPa 0,0 l/m 5,0 km/h (1 Bft) W -8,8 C -7,5 C 13,0 km/h (3 Bft)
17.01.2017 09:00 -7,2 C 89 % 1032,3 hPa 0,0 l/m 6,0 km/h (2 Bft) SW -8,7 C -7,5 C 15,3 km/h (3 Bft)
17.01.2017 10:00 -7,1 C 88 % 1032,7 hPa 0,0 l/m 5,4 km/h (1 Bft) W-NW -8,7 C -7,5 C 13,8 km/h (3 Bft)
17.01.2017 11:00 -6,4 C 86 % 1032,5 hPa 0,0 l/m 5,5 km/h (2 Bft) NW -8,3 C -6,5 C 15,6 km/h (3 Bft)
17.01.2017 12:00 -5,9 C 86 % 1032,3 hPa 0,0 l/m 5,8 km/h (2 Bft) W-NW -7,9 C -6,2 C 13,4 km/h (3 Bft)
17.01.2017 13:00 -5,6 C 85 % 1032,1 hPa 0,0 l/m 6,1 km/h (2 Bft) W-NW -7,8 C -6,0 C 16,8 km/h (3 Bft)
17.01.2017 14:00 -5,5 C 84 % 1031,9 hPa 0,0 l/m 4,7 km/h (1 Bft) NW -7,7 C -5,5 C 12,9 km/h (3 Bft)
17.01.2017 15:00 -5,2 C 81 % 1032,0 hPa 0,0 l/m 5,8 km/h (2 Bft) S-SW -8,0 C -5,3 C 15,6 km/h (3 Bft)
17.01.2017 16:00 -5,3 C 81 % 1032,2 hPa 0,0 l/m 5,3 km/h (1 Bft) S-SW -8,1 C -5,3 C 14,2 km/h (3 Bft)
17.01.2017 17:00 -5,6 C 84 % 1032,6 hPa 0,0 l/m 5,5 km/h (2 Bft) W -7,9 C -5,9 C 12,7 km/h (3 Bft)
17.01.2017 18:00 -5,9 C 85 % 1032,9 hPa 0,0 l/m 6,4 km/h (2 Bft) W-NW -8,0 C -6,5 C 15,2 km/h (3 Bft)
17.01.2017 19:00 -6,1 C 87 % 1033,2 hPa 0,0 l/m 6,3 km/h (2 Bft) W-NW -7,9 C -6,3 C 16,8 km/h (3 Bft)
17.01.2017 20:00 -6,5 C 87 % 1033,3 hPa 0,0 l/m 6,6 km/h (2 Bft) W -8,3 C -7,0 C 17,0 km/h (3 Bft)
17.01.2017 21:00 -6,9 C 88 % 1033,4 hPa 0,0 l/m 7,5 km/h (2 Bft) W-SW -8,6 C -8,3 C 19,8 km/h (4 Bft)
17.01.2017 22:00 -7,2 C 88 % 1033,5 hPa 0,0 l/m 8,4 km/h (2 Bft) SW -8,9 C -9,6 C 20,9 km/h (4 Bft)
17.01.2017 23:00 -7,2 C 88 % 1033,6 hPa 0,0 l/m 7,7 km/h (2 Bft) W -8,9 C -8,9 C 20,2 km/h (4 Bft)
18.01.2017 00:00 -7,2 C 87 % 1033,7 hPa 0,0 l/m 6,6 km/h (2 Bft) W-NW -8,9 C -8,0 C 15,7 km/h (3 Bft)
18.01.2017 01:00 -7,6 C 88 % 1033,9 hPa 0,0 l/m 5,9 km/h (2 Bft) W-NW -9,3 C -7,9 C 16,4 km/h (3 Bft)
18.01.2017 02:00 -7,8 C 87 % 1033,9 hPa 0,0 l/m 4,8 km/h (1 Bft) W-SW -9,6 C -7,8 C 13,8 km/h (3 Bft)
18.01.2017 03:00 -8,0 C 87 % 1033,6 hPa 0,0 l/m 5,4 km/h (1 Bft) NW -9,8 C -8,0 C 15,3 km/h (3 Bft)
18.01.2017 04:00 -7,8 C 86 % 1033,6 hPa 0,0 l/m 5,8 km/h (2 Bft) W-NW -9,8 C -7,9 C 16,8 km/h (3 Bft)
18.01.2017 05:00 -7,5 C 84 % 1033,5 hPa 0,0 l/m 6,6 km/h (2 Bft) W-NW -9,7 C -8,2 C 15,5 km/h (3 Bft)
18.01.2017 06:00 -7,8 C 85 % 1033,5 hPa 0,0 l/m 5,8 km/h (2 Bft) W-NW -9,9 C -8,1 C 14,5 km/h (3 Bft)
18.01.2017 07:00 -7,9 C 85 % 1033,8 hPa 0,0 l/m 6,3 km/h (2 Bft) S-SW -10,0 C -8,6 C 16,9 km/h (3 Bft)
18.01.2017 08:00 -7,9 C 85 % 1034,3 hPa 0,0 l/m 5,9 km/h (2 Bft) W -10,0 C -8,1 C 16,4 km/h (3 Bft)
18.01.2017 09:00 -7,6 C 83 % 1034,8 hPa 0,0 l/m 6,3 km/h (2 Bft) SW -10,0 C -8,0 C 16,2 km/h (3 Bft)
18.01.2017 10:00 -6,8 C 81 % 1034,9 hPa 0,0 l/m 6,9 km/h (2 Bft) W-NW -9,5 C -7,5 C 17,3 km/h (3 Bft)
18.01.2017 11:00 -5,5 C 78 % 1034,8 hPa 0,0 l/m 7,1 km/h (2 Bft) W -8,8 C -6,5 C 16,7 km/h (3 Bft)
18.01.2017 12:00 -4,6 C 75 % 1034,5 hPa 0,0 l/m 7,3 km/h (2 Bft) W-NW -8,3 C -6,2 C 16,3 km/h (3 Bft)
18.01.2017 13:00 -3,7 C 72 % 1034,1 hPa 0,3 l/m 7,2 km/h (2 Bft) SW -7,9 C -5,0 C 20,3 km/h (4 Bft)
18.01.2017 14:00 -4,7 C 74 % 1034,1 hPa 0,0 l/m 8,4 km/h (2 Bft) W -8,5 C -6,9 C 21,7 km/h (4 Bft)
18.01.2017 15:00 -4,4 C 74 % 1034,3 hPa 0,0 l/m 7,1 km/h (2 Bft) W -8,3 C -5,5 C 18,2 km/h (3 Bft)
18.01.2017 16:00 -5,3 C 78 % 1034,5 hPa 0,0 l/m 6,4 km/h (2 Bft) S-SW -8,5 C -5,9 C 18,2 km/h (3 Bft)
18.01.2017 17:00 -5,6 C 79 % 1034,6 hPa 0,0 l/m 5,8 km/h (2 Bft) SW -8,7 C -6,4 C 13,9 km/h (3 Bft)
18.01.2017 18:00 -5,8 C 80 % 1034,6 hPa 0,0 l/m 5,2 km/h (1 Bft) S-SW -8,7 C -6,0 C 12,4 km/h (2 Bft)
18.01.2017 19:00 -6,2 C 81 % 1034,5 hPa 0,0 l/m 5,4 km/h (1 Bft) W-NW -8,9 C -6,3 C 16,0 km/h (3 Bft)
18.01.2017 20:00 -6,4 C 82 % 1034,5 hPa 0,0 l/m 4,9 km/h (1 Bft) W -8,9 C -6,4 C 12,9 km/h (3 Bft)
18.01.2017 21:00 -6,4 C 83 % 1034,2 hPa 0,0 l/m 4,3 km/h (1 Bft) W -8,9 C -6,4 C 11,8 km/h (2 Bft)
18.01.2017 22:00 -6,6 C 83 % 1034,1 hPa 0,0 l/m 4,7 km/h (1 Bft) W-SW -9,0 C -6,6 C 13,6 km/h (3 Bft)
18.01.2017 23:00 -6,7 C 84 % 1034,1 hPa 0,0 l/m 3,5 km/h (1 Bft) S-SW -8,9 C -6,7 C 10,9 km/h (2 Bft)
19.01.2017 00:00 -6,8 C 84 % 1033,8 hPa 0,0 l/m 3,1 km/h (1 Bft) W -9,0 C -6,8 C 7,2 km/h (2 Bft)
19.01.2017 01:00 -7,0 C 86 % 1033,7 hPa 0,0 l/m 3,0 km/h (1 Bft) W -9,0 C -7,0 C 8,6 km/h (2 Bft)
19.01.2017 02:00 -7,2 C 87 % 1033,9 hPa 0,0 l/m 3,3 km/h (1 Bft) W-SW -9,0 C -7,2 C 9,9 km/h (2 Bft)
19.01.2017 03:00 -7,3 C 88 % 1033,9 hPa 0,0 l/m 3,3 km/h (1 Bft) W-NW -9,0 C -7,3 C 10,1 km/h (2 Bft)
19.01.2017 04:00 -7,5 C 88 % 1033,9 hPa 0,0 l/m 2,7 km/h (1 Bft) W -9,0 C -7,5 C 7,6 km/h (2 Bft)
19.01.2017 05:00 -7,6 C 89 % 1033,8 hPa 0,0 l/m 2,4 km/h (1 Bft) S-SW -9,1 C -7,6 C 6,2 km/h (2 Bft)
19.01.2017 06:00 -7,8 C 89 % 1033,9 hPa 0,0 l/m 1,8 km/h (1 Bft) W-NW -9,2 C -7,8 C 4,4 km/h (1 Bft)
19.01.2017 07:00 -7,9 C 90 % 1034,0 hPa 0,0 l/m 2,8 km/h (1 Bft) W -9,3 C -7,9 C 7,6 km/h (2 Bft)
19.01.2017 08:00 -8,2 C 90 % 1034,5 hPa 0,0 l/m 3,5 km/h (1 Bft) NW -9,5 C -8,2 C 9,8 km/h (2 Bft)
19.01.2017 09:00 -8,5 C 90 % 1034,6 hPa 0,0 l/m 2,3 km/h (1 Bft) W-NW -9,9 C -8,5 C 6,4 km/h (2 Bft)
19.01.2017 10:00 -8,1 C 88 % 1035,0 hPa 0,0 l/m 2,7 km/h (1 Bft) W -9,7 C -8,1 C 7,2 km/h (2 Bft)
19.01.2017 11:00 -6,2 C 83 % 1034,7 hPa 0,0 l/m 3,9 km/h (1 Bft) W-NW -8,7 C -6,2 C 9,2 km/h (2 Bft)
19.01.2017 12:00 -5,2 C 79 % 1034,4 hPa 0,0 l/m 4,7 km/h (1 Bft) W-NW -8,3 C -5,3 C 10,0 km/h (2 Bft)
19.01.2017 13:00 -4,0 C 75 % 1034,0 hPa 0,0 l/m 3,7 km/h (1 Bft) W -7,7 C -4,0 C 9,8 km/h (2 Bft)
19.01.2017 14:00 -3,3 C 73 % 1033,6 hPa 0,0 l/m 3,4 km/h (1 Bft) W -7,4 C -3,3 C 9,4 km/h (2 Bft)
19.01.2017 15:00 -3,3 C 73 % 1033,5 hPa 0,0 l/m 3,3 km/h (1 Bft) S-SW -7,6 C -3,3 C 10,4 km/h (2 Bft)
19.01.2017 16:00 -4,1 C 75 % 1033,5 hPa 0,0 l/m 3,3 km/h (1 Bft) W -7,9 C -4,1 C 9,4 km/h (2 Bft)
19.01.2017 17:00 -5,7 C 80 % 1033,8 hPa 0,0 l/m 2,0 km/h (1 Bft) NW -8,6 C -5,7 C 5,2 km/h (1 Bft)
19.01.2017 18:00 -6,4 C 82 % 1034,0 hPa 0,0 l/m 2,3 km/h (1 Bft) NW -9,0 C -6,4 C 5,4 km/h (2 Bft)
19.01.2017 19:00 -7,9 C 86 % 1034,4 hPa 0,0 l/m 1,0 km/h (0 Bft) W-NW -9,8 C -7,9 C 3,5 km/h (1 Bft)
19.01.2017 20:00 -9,0 C 87 % 1034,7 hPa 0,0 l/m 0,4 km/h (0 Bft) W-NW -10,7 C -9,0 C 1,9 km/h (1 Bft)
19.01.2017 21:00 -11,1 C 90 % 1034,7 hPa 0,0 l/m 0,1 km/h (0 Bft) W-NW -12,4 C -11,1 C 0,4 km/h (0 Bft)
19.01.2017 22:00 -12,1 C 91 % 1034,8 hPa 0,0 l/m 0,0 km/h (0 Bft) W-NW -13,2 C -12,1 C 0,1 km/h (0 Bft)
19.01.2017 23:00 -12,9 C 91 % 1034,5 hPa 0,0 l/m 0,0 km/h (0 Bft) W-NW -14,1 C -12,9 C 0,5 km/h (0 Bft)
20.01.2017 00:00 -13,5 C 90 % 1034,3 hPa 0,0 l/m 0,0 km/h (0 Bft) W-NW -14,7 C -13,5 C 0,4 km/h (0 Bft)
20.01.2017 01:00 -14,4 C 89 % 1034,0 hPa 0,0 l/m 0,0 km/h (0 Bft) W-NW -15,8 C -14,4 C 0,3 km/h (0 Bft)
20.01.2017 02:00 -15,0 C 89 % 1034,2 hPa 0,0 l/m 0,1 km/h (0 Bft) W-NW -16,4 C -15,0 C 0,5 km/h (0 Bft)
20.01.2017 03:00 -15,8 C 89 % 1034,3 hPa 0,0 l/m 0,1 km/h (0 Bft) W-NW -17,2 C -15,8 C 0,4 km/h (0 Bft)
20.01.2017 04:00 -16,2 C 88 % 1034,1 hPa 0,0 l/m 0,0 km/h (0 Bft) W-NW -17,7 C -16,2 C 0,7 km/h (0 Bft)
20.01.2017 05:00 -16,6 C 89 % 1034,2 hPa 0,0 l/m 0,1 km/h (0 Bft) W-NW -18,0 C -16,6 C 0,7 km/h (0 Bft)
20.01.2017 06:00 -16,7 C 89 % 1034,3 hPa 0,0 l/m 0,1 km/h (0 Bft) W-NW -18,1 C -16,7 C 0,6 km/h (0 Bft)
20.01.2017 07:00 -16,8 C 88 % 1034,7 hPa 0,0 l/m 0,1 km/h (0 Bft) W-NW -18,2 C -16,8 C 0,7 km/h (0 Bft)
20.01.2017 08:00 -16,8 C 88 % 1035,1 hPa 0,0 l/m 0,1 km/h (0 Bft) W-NW -18,3 C -16,8 C 1,2 km/h (1 Bft)
20.01.2017 09:00 -15,2 C 89 % 1035,2 hPa 0,0 l/m 0,4 km/h (0 Bft) W-NW -16,5 C -15,2 C 1,9 km/h (1 Bft)
20.01.2017 10:00 -11,7 C 87 % 1035,4 hPa 0,0 l/m 0,7 km/h (0 Bft) W-NW -13,5 C -11,7 C 2,7 km/h (1 Bft)
20.01.2017 11:00 -7,1 C 82 % 1035,1 hPa 0,0 l/m 2,8 km/h (1 Bft) W-NW -9,6 C -7,1 C 6,2 km/h (2 Bft)
20.01.2017 12:00 -5,8 C 79 % 1034,7 hPa 0,0 l/m 4,4 km/h (1 Bft) W -8,7 C -5,7 C 9,8 km/h (2 Bft)
20.01.2017 13:00 -4,6 C 76 % 1033,9 hPa 0,0 l/m 3,0 km/h (1 Bft) W-NW -8,2 C -4,6 C 6,5 km/h (2 Bft)
20.01.2017 14:00 -3,9 C 74 % 1033,7 hPa 0,0 l/m 3,0 km/h (1 Bft) W -7,8 C -3,9 C 7,1 km/h (2 Bft)
20.01.2017 15:00 -3,3 C 72 % 1033,5 hPa 0,0 l/m 1,8 km/h (1 Bft) W-NW -7,5 C -3,3 C 4,5 km/h (1 Bft)
20.01.2017 16:00 -4,3 C 75 % 1033,5 hPa 0,0 l/m 0,7 km/h (0 Bft) W-NW -8,1 C -4,3 C 2,7 km/h (1 Bft)
20.01.2017 17:00 -7,9 C 84 % 1033,7 hPa 0,0 l/m 0,0 km/h (0 Bft) W-NW -10,2 C -7,9 C 0,3 km/h (0 Bft)
20.01.2017 18:00 -9,9 C 88 % 1033,9 hPa 0,0 l/m 0,1 km/h (0 Bft) W-NW -11,5 C -9,9 C 0,5 km/h (0 Bft)
20.01.2017 19:00 -11,8 C 90 % 1034,1 hPa 0,0 l/m 0,0 km/h (0 Bft) W-NW -13,1 C -11,8 C 0,1 km/h (0 Bft)
20.01.2017 20:00 -12,8 C 90 % 1034,2 hPa 0,0 l/m 0,0 km/h (0 Bft) W-NW -14,1 C -12,8 C 0,1 km/h (0 Bft)
20.01.2017 21:00 -13,7 C 90 % 1034,4 hPa 0,0 l/m 0,0 km/h (0 Bft) W-NW -15,0 C -13,7 C 0,3 km/h (0 Bft)
20.01.2017 22:00 -14,3 C 90 % 1034,5 hPa 0,0 l/m 0,0 km/h (0 Bft) W-NW -15,6 C -14,3 C 0,0 km/h (0 Bft)
20.01.2017 23:00 -15,0 C 90 % 1034,3 hPa 0,0 l/m 0,0 km/h (0 Bft) W-NW -16,3 C -15,0 C 0,3 km/h (0 Bft)
21.01.2017 00:00 -15,1 C 90 % 1034,2 hPa 0,0 l/m 0,0 km/h (0 Bft) W-NW -16,4 C -15,1 C 0,6 km/h (0 Bft)
21.01.2017 01:00 -15,8 C 89 % 1033,8 hPa 0,0 l/m 0,0 km/h (0 Bft) W-NW -17,2 C -15,8 C 0,0 km/h (0 Bft)
21.01.2017 02:00 -16,3 C 89 % 1033,7 hPa 0,0 l/m 0,0 km/h (0 Bft) W-NW -17,7 C -16,3 C 0,0 km/h (0 Bft)
21.01.2017 03:00 -16,6 C 89 % 1033,4 hPa 0,0 l/m 0,0 km/h (0 Bft) W-NW -17,9 C -16,6 C 0,4 km/h (0 Bft)
21.01.2017 04:00 -16,8 C 88 % 1033,1 hPa 0,0 l/m 0,0 km/h (0 Bft) W-NW -18,3 C -16,8 C 0,0 km/h (0 Bft)
21.01.2017 05:00 -17,1 C 89 % 1032,8 hPa 0,0 l/m 0,0 km/h (0 Bft) W-NW -18,5 C -17,1 C 0,2 km/h (0 Bft)
21.01.2017 06:00 -17,1 C 89 % 1032,6 hPa 0,0 l/m 0,0 km/h (0 Bft) W-NW -18,5 C -17,1 C 0,1 km/h (0 Bft)
21.01.2017 07:00 -17,3 C 88 % 1032,8 hPa 0,0 l/m 0,0 km/h (0 Bft) W-NW -18,8 C -17,3 C 0,1 km/h (0 Bft)
21.01.2017 08:00 -17,3 C 89 % 1032,8 hPa 0,0 l/m 0,0 km/h (0 Bft) W-NW -18,7 C -17,3 C 0,3 km/h (0 Bft)
21.01.2017 09:00 -14,6 C 90 % 1033,0 hPa 0,0 l/m 0,2 km/h (0 Bft) W-NW -16,0 C -14,6 C 1,1 km/h (0 Bft)
21.01.2017 10:00 -10,5 C 85 % 1032,8 hPa 0,0 l/m 0,5 km/h (0 Bft) W-NW -12,5 C -10,5 C 1,7 km/h (1 Bft)
21.01.2017 11:00 -6,2 C 78 % 1032,4 hPa 0,0 l/m 1,2 km/h (1 Bft) W-NW -9,4 C -6,2 C 2,9 km/h (1 Bft)
21.01.2017 12:00 -3,0 C 74 % 1031,9 hPa 0,3 l/m 0,7 km/h (0 Bft) W-NW -7,0 C -3,0 C 1,8 km/h (1 Bft)
21.01.2017 13:00 -0,1 C 68 % 1031,1 hPa 0,0 l/m 1,2 km/h (1 Bft) W-NW -5,2 C -0,1 C 2,9 km/h (1 Bft)
21.01.2017 14:00 1,6 C 64 % 1030,4 hPa 0,5 l/m 0,7 km/h (0 Bft) W-NW -4,4 C 1,6 C 2,1 km/h (1 Bft)
21.01.2017 15:00 1,6 C 66 % 1030,2 hPa 1,5 l/m 0,4 km/h (0 Bft) W-NW -4,0 C 1,6 C 1,7 km/h (1 Bft)
21.01.2017 16:00 -0,2 C 70 % 1030,2 hPa 0,5 l/m 0,1 km/h (0 Bft) W-NW -5,0 C -0,2 C 0,5 km/h (0 Bft)
21.01.2017 17:00 -5,0 C 85 % 1030,3 hPa 0,0 l/m 0,0 km/h (0 Bft) W-NW -7,2 C -5,0 C 0,1 km/h (0 Bft)
21.01.2017 18:00 -6,9 C 89 % 1030,5 hPa 0,0 l/m 0,0 km/h (0 Bft) W-NW -8,5 C -6,9 C 0,2 km/h (0 Bft)
21.01.2017 19:00 -8,9 C 91 % 1030,7 hPa 0,0 l/m 0,0 km/h (0 Bft) W-NW -10,1 C -8,9 C 0,3 km/h (0 Bft)
21.01.2017 20:00 -10,4 C 91 % 1030,7 hPa 0,0 l/m 0,0 km/h (0 Bft) W-NW -11,6 C -10,4 C 0,1 km/h (0 Bft)
21.01.2017 21:00 -11,3 C 91 % 1030,7 hPa 0,0 l/m 0,0 km/h (0 Bft) W-NW -12,6 C -11,3 C 0,7 km/h (0 Bft)
21.01.2017 22:00 -12,2 C 90 % 1030,7 hPa 0,0 l/m 0,1 km/h (0 Bft) W-NW -13,5 C -12,2 C 0,8 km/h (0 Bft)
21.01.2017 23:00 -13,0 C 90 % 1030,7 hPa 0,0 l/m 0,1 km/h (0 Bft) W-NW -14,3 C -13,0 C 1,1 km/h (0 Bft)
22.01.2017 00:00 -13,7 C 89 % 1030,5 hPa 0,0 l/m 0,0 km/h (0 Bft) W-NW -15,1 C -13,7 C 0,2 km/h (0 Bft)
22.01.2017 01:00 -14,5 C 90 % 1030,1 hPa 0,0 l/m 0,0 km/h (0 Bft) W-NW -15,9 C -14,5 C 0,0 km/h (0 Bft)
22.01.2017 02:00 -14,8 C 90 % 1029,8 hPa 0,0 l/m 0,0 km/h (0 Bft) W-NW -16,1 C -14,8 C 0,3 km/h (0 Bft)
22.01.2017 03:00 -15,3 C 89 % 1029,6 hPa 0,0 l/m 0,1 km/h (0 Bft) W-NW -16,7 C -15,3 C 0,3 km/h (0 Bft)
22.01.2017 04:00 -15,7 C 89 % 1029,1 hPa 0,0 l/m 0,0 km/h (0 Bft) W-NW -17,0 C -15,7 C 0,1 km/h (0 Bft)
22.01.2017 05:00 -15,8 C 89 % 1028,4 hPa 0,0 l/m 0,1 km/h (0 Bft) W-NW -17,2 C -15,8 C 0,6 km/h (0 Bft)
22.01.2017 06:00 -16,0 C 89 % 1028,4 hPa 0,0 l/m 0,0 km/h (0 Bft) W-NW -17,4 C -16,0 C 0,4 km/h (0 Bft)
22.01.2017 07:00 -16,2 C 89 % 1028,2 hPa 0,0 l/m 0,0 km/h (0 Bft) W-NW -17,7 C -16,2 C 0,3 km/h (0 Bft)
22.01.2017 08:00 -16,3 C 89 % 1028,2 hPa 0,0 l/m 0,0 km/h (0 Bft) W-NW -17,6 C -16,3 C 0,2 km/h (0 Bft)
22.01.2017 09:00 -13,4 C 91 % 1028,4 hPa 0,0 l/m 0,2 km/h (0 Bft) W-NW -14,6 C -13,4 C 1,1 km/h (0 Bft)
22.01.2017 10:00 -9,4 C 86 % 1028,4 hPa 0,0 l/m 0,7 km/h (0 Bft) W-NW -11,3 C -9,4 C 1,9 km/h (1 Bft)
22.01.2017 11:00 -5,0 C 79 % 1027,7 hPa 0,0 l/m 0,6 km/h (0 Bft) W-NW -8,1 C -5,0 C 1,8 km/h (1 Bft)
22.01.2017 12:00 -2,2 C 75 % 1027,1 hPa 0,3 l/m 0,9 km/h (0 Bft) W-NW -6,0 C -2,2 C 1,9 km/h (1 Bft)
22.01.2017 13:00 1,3 C 67 % 1026,2 hPa 1,0 l/m 0,9 km/h (0 Bft) W-NW -4,2 C 1,3 C 2,4 km/h (1 Bft)
22.01.2017 14:00 3,1 C 62 % 1025,5 hPa 1,3 l/m 0,6 km/h (0 Bft) W-NW -3,4 C 3,1 C 1,6 km/h (1 Bft)
22.01.2017 15:00 3,7 C 62 % 1025,3 hPa 1,0 l/m 0,3 km/h (0 Bft) W-NW -2,8 C 3,7 C 1,3 km/h (1 Bft)
22.01.2017 16:00 1,6 C 68 % 1025,5 hPa 0,5 l/m 0,1 km/h (0 Bft) W-NW -3,6 C 1,6 C 0,9 km/h (0 Bft)
22.01.2017 17:00 -4,5 C 85 % 1025,9 hPa 0,0 l/m 0,0 km/h (0 Bft) W-NW -6,7 C -4,5 C 0,0 km/h (0 Bft)
22.01.2017 18:00 -6,5 C 89 % 1026,3 hPa 0,0 l/m 0,0 km/h (0 Bft) W-NW -8,0 C -6,5 C 0,3 km/h (0 Bft)
22.01.2017 19:00 -8,6 C 90 % 1026,7 hPa 0,0 l/m 0,0 km/h (0 Bft) W-NW -9,9 C -8,6 C 0,0 km/h (0 Bft)
22.01.2017 20:00 -10,1 C 91 % 1026,7 hPa 0,0 l/m 0,0 km/h (0 Bft) W-NW -11,3 C -10,1 C 0,5 km/h (0 Bft)
22.01.2017 21:00 -11,1 C 90 % 1026,8 hPa 0,0 l/m 0,2 km/h (0 Bft) W-NW -12,4 C -11,1 C 0,5 km/h (0 Bft)
22.01.2017 22:00 -12,3 C 90 % 1026,9 hPa 0,0 l/m 0,0 km/h (0 Bft) W-NW -13,6 C -12,3 C 0,4 km/h (0 Bft)
22.01.2017 23:00 -13,1 C 90 % 1027,2 hPa 0,0 l/m 0,0 km/h (0 Bft) W-NW -14,5 C -13,1 C 0,4 km/h (0 Bft)
Min-Datum _ 21.01.17 22.01.17 16.01.17 - 22.01.17 - 21.01.17 21.01.17 22.01.17
_ Min-Zeit 08:05 15:20 01:55 - 23:10 - 08:30 08:05 23:15
Minimum _ -17,6 C 59 % 1022,1 hPa - 0,0 km/h (0 Bft) - -19,1 C -17,6 C 0,0 km/h (0 Bft)
Max-Datum _ 22.01.17 16.01.17 20.01.17 21.01.17 18.01.17 - 22.01.17 22.01.17 18.01.17
_ Max-Zeit 15:15 04:00 10:45 15:00 12:10 - 15:40 15:15 13:40
Maximum _ 3,8 C 96 % 1035,5 hPa 1,5 l/m 11,3 km/h
W-NW (2 Bft)
- -2,4 C 3,8 C 30,6 km/h
S (5 Bft)
Durchschnitt _ -8,2 C 86 % 1031,2 hPa #7,6 l/m 2,3 km/h (1 Bft) W-NW -10,2 C -8,3 C 6,2 km/h (2 Bft)